Time;durP1;ratioP1;P1;durP2;ratioP2;P2;SDS_P1;SDS_P2;PMS_P1;PMS_P2;Temp;Humidity;BMP_temperature;BMP_pressure;BME280_temperature;BME280_humidity;BME280_pressure;Samples;Min_cycle;Max_cycle;Signal;HPM_P1;HPM_P2
2023/05/08 00:00:35;;;;;;;14.67;13.17;;;;;;;13.84;100.00;64155.13;4974591;28;20027;-96
2023/05/08 00:03:12;;;;;;;14.90;13.15;;;;;;;13.83;100.00;64154.34;4975080;28;20108;-96
2023/05/08 00:05:40;;;;;;;15.23;12.20;;;;;;;13.82;100.00;64153.28;4974846;28;20023;-96
2023/05/08 00:08:17;;;;;;;14.20;12.70;;;;;;;13.81;100.00;64152.28;4974780;28;20270;-96
2023/05/08 00:10:44;;;;;;;14.98;12.52;;;;;;;13.79;100.00;64150.34;4975279;28;20023;-96
2023/05/08 00:13:10;;;;;;;16.45;13.10;;;;;;;13.77;100.00;64148.84;4974814;28;20535;-96
2023/05/08 00:15:42;;;;;;;17.08;13.27;;;;;;;13.76;100.00;64148.28;4958058;28;20022;-96
2023/05/08 00:18:17;;;;;;;18.30;13.93;;;;;;;13.74;100.00;64146.28;4975140;28;20039;-96
2023/05/08 00:20:48;;;;;;;16.73;14.43;;;;;;;13.74;100.00;64145.19;4976372;28;20031;-95
2023/05/08 00:23:14;;;;;;;15.57;13.38;;;;;;;13.73;100.00;64144.38;4978919;28;20090;-96
2023/05/08 00:25:39;;;;;;;15.97;14.23;;;;;;;13.71;100.00;64143.25;4988764;28;20023;-96
2023/05/08 00:28:05;;;;;;;16.20;14.03;;;;;;;13.70;100.00;64142.38;4979289;28;20023;-96
2023/05/08 00:30:30;;;;;;;14.88;13.27;;;;;;;13.69;100.00;64141.34;4984390;28;20080;-96
2023/05/08 00:32:55;;;;;;;15.07;13.47;;;;;;;13.68;100.00;64140.13;4981242;28;20158;-96
2023/05/08 00:35:21;;;;;;;17.90;14.87;;;;;;;13.67;100.00;64139.13;4963538;28;20019;-96
2023/05/08 00:37:46;;;;;;;16.13;14.23;;;;;;;13.66;100.00;64138.28;4993966;28;20023;-96
2023/05/08 00:40:12;;;;;;;15.93;13.77;;;;;;;13.66;100.00;64138.28;4981128;28;20361;-96
2023/05/08 00:42:45;;;;;;;16.30;13.80;;;;;;;13.64;100.00;64136.84;4958452;28;20038;-96
2023/05/08 00:45:11;;;;;;;15.50;13.75;;;;;;;13.63;100.00;64135.78;4975816;28;20085;-96
2023/05/08 00:47:44;;;;;;;16.88;14.85;;;;;;;13.62;100.00;64135.03;4958601;28;20054;-96
2023/05/08 00:50:09;;;;;;;22.30;15.00;;;;;;;13.61;100.00;64134.25;4975116;28;20027;-96
2023/05/08 00:52:35;;;;;;;16.03;13.87;;;;;;;13.61;100.00;64134.03;4957383;28;20297;-96
2023/05/08 00:55:02;;;;;;;19.92;14.43;;;;;;;13.59;100.00;64132.34;4974835;28;20034;-96
2023/05/08 00:57:31;;;;;;;18.70;14.70;;;;;;;13.58;100.00;64131.44;4974241;28;20023;-96
2023/05/08 00:59:58;;;;;;;17.30;14.60;;;;;;;13.57;100.00;64130.44;4975306;28;20493;-96
2023/05/08 01:02:31;;;;;;;20.15;15.07;;;;;;;13.56;100.00;64129.44;4974423;28;20035;-96
2023/05/08 01:05:02;;;;;;;16.13;14.30;;;;;;;13.54;100.00;64128.00;4974157;28;20060;-96
2023/05/08 01:07:31;;;;;;;16.60;14.47;;;;;;;13.54;100.00;64127.09;4958438;28;20286;-96
2023/05/08 01:09:56;;;;;;;18.23;15.70;;;;;;;13.52;100.00;64125.53;4957226;28;20561;-96
2023/05/08 01:12:33;;;;;;;16.50;14.60;;;;;;;13.51;100.00;64124.84;4975384;28;20034;-96
2023/05/08 01:15:08;;;;;;;16.70;14.17;;;;;;;13.51;100.00;64124.09;4964247;28;20027;-96
2023/05/08 01:17:59;;;;;;;18.55;14.10;;;;;;;13.50;100.00;64123.69;4956114;28;20046;-96
2023/05/08 01:20:38;;;;;;;15.90;13.85;;;;;;;13.50;100.00;64123.28;4962639;28;20113;-96
2023/05/08 01:23:41;;;;;;;16.42;13.65;;;;;;;13.49;100.00;64122.59;4956290;28;20375;-96
2023/05/08 01:26:44;;;;;;;19.02;13.95;;;;;;;13.49;100.00;64122.53;4974077;28;20115;-96
2023/05/08 01:29:47;;;;;;;15.60;13.88;;;;;;;13.48;100.00;64122.28;4981173;28;20042;-96
2023/05/08 01:32:44;;;;;;;19.75;15.15;;;;;;;13.48;100.00;64122.19;4987979;28;20390;-96
2023/05/08 01:35:27;;;;;;;17.15;14.57;;;;;;;13.47;100.00;64121.28;4973383;28;20581;-96
2023/05/08 01:38:18;;;;;;;18.48;15.13;;;;;;;13.47;100.00;64121.19;4973123;28;20375;-95
2023/05/08 01:40:53;;;;;;;16.40;14.70;;;;;;;13.46;100.00;64119.94;4973617;28;20556;-95
2023/05/08 01:43:37;;;;;;;18.30;14.57;;;;;;;13.46;100.00;64119.69;4956645;28;20290;-95
2023/05/08 01:46:12;;;;;;;16.25;14.38;;;;;;;13.45;100.00;64118.94;4973116;28;20055;-95
2023/05/08 01:49:11;;;;;;;21.88;15.05;;;;;;;13.44;100.00;64117.69;4973838;28;20031;-95
2023/05/08 01:51:43;;;;;;;15.77;13.65;;;;;;;13.43;100.00;64117.53;4956312;28;20022;-96
2023/05/08 01:54:15;;;;;;;19.80;14.70;;;;;;;13.43;100.00;64117.41;4973622;28;20038;-96
2023/05/08 01:56:43;;;;;;;17.27;14.68;;;;;;;13.42;100.00;64116.94;4956275;28;20023;-95
2023/05/08 01:59:14;;;;;;;17.67;14.63;;;;;;;13.42;100.00;64116.69;4956331;28;20526;-96
2023/05/08 02:01:41;;;;;;;16.17;14.43;;;;;;;13.42;100.00;64116.34;4973633;28;20042;-96
2023/05/08 02:04:21;;;;;;;19.20;15.48;;;;;;;13.41;100.00;64115.84;4972804;28;20037;-96
2023/05/08 02:07:07;;;;;;;17.27;14.97;;;;;;;13.40;100.00;64115.09;4972320;28;20056;-96
2023/05/08 02:09:39;;;;;;;18.87;14.87;;;;;;;13.40;100.00;64114.59;4972112;28;20314;-96
2023/05/08 02:12:07;;;;;;;20.60;14.95;;;;;;;13.39;100.00;64113.59;4954987;28;20031;-96
2023/05/08 02:14:38;;;;;;;18.65;15.20;;;;;;;13.38;100.00;64113.31;4955004;28;20039;-96
2023/05/08 02:17:16;;;;;;;17.92;15.93;;;;;;;13.38;100.00;64112.91;4974582;28;20026;-95
2023/05/08 02:19:53;;;;;;;17.20;15.35;;;;;;;13.37;100.00;64112.66;4986852;28;20027;-95
2023/05/08 02:22:20;;;;;;;22.15;16.10;;;;;;;13.37;100.00;64112.41;4973568;28;20521;-95
2023/05/08 02:24:54;;;;;;;20.80;16.40;;;;;;;13.37;100.00;64111.84;4954809;28;20557;-96
2023/05/08 02:27:25;;;;;;;21.70;17.52;;;;;;;13.36;100.00;64111.84;4978189;23;20514;-95
2023/05/08 02:29:52;;;;;;;19.27;16.60;;;;;;;13.35;100.00;64110.66;4972526;28;20489;-95
2023/05/08 02:32:19;;;;;;;20.83;17.17;;;;;;;13.35;100.00;64110.56;4971839;28;20037;-95
2023/05/08 02:34:47;;;;;;;22.87;18.90;;;;;;;13.34;100.00;64109.56;4972005;28;20754;-95
2023/05/08 02:37:15;;;;;;;22.27;17.50;;;;;;;13.33;100.00;64108.84;4971911;28;20094;-96
2023/05/08 02:39:42;;;;;;;22.95;18.40;;;;;;;13.33;100.00;64108.00;4972711;28;20035;-96
2023/05/08 02:42:08;;;;;;;22.25;17.92;;;;;;;13.32;100.00;64107.00;4971863;28;20123;-94
2023/05/08 02:44:34;;;;;;;24.25;18.33;;;;;;;13.31;100.00;64106.00;4971561;28;20110;-95
2023/05/08 02:47:11;;;;;;;26.27;18.73;;;;;;;13.30;100.00;64105.25;4971877;28;20034;-96
2023/05/08 02:49:50;;;;;;;24.88;19.05;;;;;;;13.29;100.00;64104.75;4954867;28;20122;-95
2023/05/08 02:52:24;;;;;;;26.38;19.13;;;;;;;13.29;100.00;64104.66;4954388;28;20034;-95
2023/05/08 02:55:17;;;;;;;24.25;18.23;;;;;;;13.29;100.00;64104.31;4971870;28;20059;-95
2023/05/08 02:58:19;;;;;;;26.42;18.52;;;;;;;13.28;100.00;64103.66;4955603;28;20038;-96
2023/05/08 03:01:06;;;;;;;23.98;18.40;;;;;;;13.28;100.00;64103.00;4959315;28;20027;-96
2023/05/08 03:03:48;;;;;;;25.25;19.60;;;;;;;13.27;100.00;64102.41;4962898;28;20089;-96
2023/05/08 03:06:20;;;;;;;23.98;18.10;;;;;;;13.26;100.00;64101.31;4984606;28;20023;-96
2023/05/08 03:08:47;;;;;;;25.03;19.30;;;;;;;13.25;100.00;64100.06;4963973;28;20027;-96
2023/05/08 03:11:18;;;;;;;24.70;18.87;;;;;;;13.24;100.00;64099.31;4976963;28;20290;-96
2023/05/08 03:13:46;;;;;;;24.83;19.08;;;;;;;13.22;100.00;64098.00;4957993;28;20478;-96
2023/05/08 03:16:17;;;;;;;29.15;19.92;;;;;;;13.22;100.00;64097.25;4974100;28;20627;-95
2023/05/08 03:18:53;;;;;;;25.17;19.58;;;;;;;13.20;100.00;64095.59;4975219;28;20026;-95
2023/05/08 03:21:21;;;;;;;26.92;20.15;;;;;;;13.19;100.00;64094.81;4974646;28;20035;-96
2023/05/08 03:23:50;;;;;;;24.25;18.75;;;;;;;13.18;100.00;64094.25;4979443;28;20026;-96
2023/05/08 03:26:20;;;;;;;27.92;19.63;;;;;;;13.17;100.00;64093.16;4988648;28;20014;-96
2023/05/08 03:28:48;;;;;;;25.10;19.25;;;;;;;13.16;100.00;64092.31;4976318;28;20035;-96
2023/05/08 03:31:20;;;;;;;28.92;21.55;;;;;;;13.15;100.00;64090.91;4959065;28;20034;-96
2023/05/08 03:33:46;;;;;;;32.63;22.07;;;;;;;13.14;100.00;64090.66;4964078;28;20019;-95
2023/05/08 03:36:13;;;;;;;29.83;19.83;;;;;;;13.13;100.00;64089.75;4981407;28;20301;-96
2023/05/08 03:38:39;;;;;;;28.08;20.38;;;;;;;13.12;100.00;64088.50;4962050;28;20014;-96
2023/05/08 03:41:04;;;;;;;25.05;19.20;;;;;;;13.10;100.00;64086.41;4977262;28;20420;-96
2023/05/08 03:43:31;;;;;;;26.48;19.90;;;;;;;13.09;100.00;64084.75;4974024;28;20057;-95
2023/05/08 03:45:56;;;;;;;24.97;18.73;;;;;;;13.07;100.00;64082.75;4956493;28;20022;-96
2023/05/08 03:48:22;;;;;;;26.20;19.23;;;;;;;13.03;100.00;64079.41;4974147;28;20027;-95
2023/05/08 03:50:49;;;;;;;24.05;19.10;;;;;;;13.01;100.00;64077.31;4956769;28;20035;-95
2023/05/08 03:53:14;;;;;;;26.35;20.15;;;;;;;12.98;100.00;64074.25;4974086;28;20027;-95
2023/05/08 03:55:40;;;;;;;24.93;19.57;;;;;;;12.95;100.00;64071.34;4973849;28;20568;-96
2023/05/08 03:58:24;;;;;;;26.40;19.55;;;;;;;12.92;100.00;64067.84;4973747;28;20033;-96
2023/05/08 04:01:08;;;;;;;28.23;20.63;;;;;;;12.88;100.00;64064.59;4956789;28;20046;-96
2023/05/08 04:03:36;;;;;;;26.67;21.00;;;;;;;12.85;100.00;64061.50;4973932;28;20081;-95
2023/05/08 04:06:11;;;;;;;28.97;21.20;;;;;;;12.82;100.00;64057.84;4973132;28;20027;-96
2023/05/08 04:08:59;;;;;;;30.77;21.17;;;;;;;12.77;100.00;64053.84;4956352;28;20278;-96
2023/05/08 04:11:30;;;;;;;31.40;21.85;;;;;;;12.73;100.00;64049.75;4973788;28;20034;-96
2023/05/08 04:14:02;;;;;;;27.88;20.30;;;;;;;12.69;100.00;64045.75;4956365;28;20030;-96
2023/05/08 04:16:31;;;;;;;33.63;21.42;;;;;;;12.66;100.00;64042.50;4973188;28;20086;-96
2023/05/08 04:19:08;;;;;;;35.28;22.88;;;;;;;12.63;100.00;64039.25;4973712;28;20023;-96
2023/05/08 04:21:35;;;;;;;35.03;22.52;;;;;;;12.60;100.00;64036.09;4973396;28;20058;-96
2023/05/08 04:24:03;;;;;;;32.85;22.58;;;;;;;12.57;100.00;64033.00;4973841;28;20031;-96
2023/05/08 04:26:29;;;;;;;35.08;24.67;;;;;;;12.54;100.00;64030.75;4973438;28;20027;-96
2023/05/08 04:28:56;;;;;;;33.83;22.83;;;;;;;12.52;100.00;64028.09;4956330;28;20041;-95
2023/05/08 04:31:23;;;;;;;32.07;22.73;;;;;;;12.50;100.00;64025.94;4973238;28;20482;-95
2023/05/08 04:33:49;;;;;;;33.30;23.77;;;;;;;12.48;100.00;64023.94;4973387;28;20285;-96
2023/05/08 04:36:14;;;;;;;33.45;22.08;;;;;;;12.46;100.00;64022.66;4973243;28;20039;-96
2023/05/08 04:38:49;;;;;;;34.53;22.90;;;;;;;12.46;100.00;64022.34;4973232;28;20757;-96
2023/05/08 04:41:14;;;;;;;33.70;22.13;;;;;;;12.45;100.00;64021.75;4955959;28;20038;-96
2023/05/08 04:43:40;;;;;;;33.27;22.20;;;;;;;12.44;100.00;64021.03;4955891;28;20827;-96
2023/05/08 04:46:06;;;;;;;33.80;23.90;;;;;;;12.44;100.00;64020.59;4972137;28;20364;-96
2023/05/08 04:48:32;;;;;;;39.00;24.67;;;;;;;12.45;100.00;64021.25;4973247;28;20675;-96
2023/05/08 04:50:58;;;;;;;34.03;22.05;;;;;;;12.46;100.00;64022.94;4972896;28;20453;-96
2023/05/08 04:53:23;;;;;;;35.22;24.08;;;;;;;12.48;100.00;64024.09;4973039;28;20055;-96
2023/05/08 04:55:48;;;;;;;36.27;24.83;;;;;;;12.49;100.00;64026.00;4972652;28;20070;-96
2023/05/08 04:58:14;;;;;;;40.10;25.53;;;;;;;12.52;100.00;64028.50;4972470;28;20029;-95
2023/05/08 05:00:39;;;;;;;41.07;26.13;;;;;;;12.55;100.00;64031.59;4955661;28;20459;-96
2023/05/08 05:03:05;;;;;;;36.33;24.60;;;;;;;12.58;100.00;64035.41;4973452;28;20110;-96
2023/05/08 05:05:30;;;;;;;35.13;24.77;;;;;;;12.61;100.00;64038.66;4955414;28;20333;-96
2023/05/08 05:07:55;;;;;;;36.10;23.30;;;;;;;12.65;100.00;64042.44;4972974;28;20030;-96
2023/05/08 05:10:21;;;;;;;40.07;25.67;;;;;;;12.69;100.00;64046.41;4973307;28;20465;-96
2023/05/08 05:12:47;;;;;;;39.47;25.40;;;;;;;12.73;100.00;64050.50;4973789;28;20118;-96
2023/05/08 05:15:13;;;;;;;33.17;24.33;;;;;;;12.78;100.00;64055.50;4974890;28;20026;-95
2023/05/08 05:17:38;;;;;;;42.10;24.77;;;;;;;12.83;100.00;64060.25;4973744;28;20027;-96
2023/05/08 05:20:05;;;;;;;38.50;25.47;;;;;;;12.88;100.00;64065.06;4977939;28;20027;-96
2023/05/08 05:22:32;;;;;;;36.28;25.52;;;;;;;12.93;100.00;64070.56;4986144;28;20015;-96
2023/05/08 05:24:57;;;;;;;38.08;26.15;;;;;;;12.98;100.00;64075.41;4973634;28;20387;-96
2023/05/08 05:27:23;;;;;;;36.40;24.77;;;;;;;13.03;100.00;64080.50;4972813;28;20042;-96
2023/05/08 05:29:48;;;;;;;41.30;26.02;;;;;;;13.08;100.00;64086.34;4955166;28;20027;-96
2023/05/08 05:32:14;;;;;;;38.13;25.43;;;;;;;13.13;100.00;64090.91;4972301;28;20027;-96
2023/05/08 05:34:39;;;;;;;37.13;26.03;;;;;;;13.18;100.00;64096.66;4955633;28;20033;-95
2023/05/08 05:37:05;;;;;;;38.63;27.52;;;;;;;13.24;100.00;64102.50;4954744;28;20433;-96
2023/05/08 05:39:30;;;;;;;41.20;27.40;;;;;;;13.30;100.00;64108.16;4972692;28;20058;-96
2023/05/08 05:41:56;;;;;;;42.33;28.80;;;;;;;13.34;100.00;64112.66;4957011;28;20030;-96
2023/05/08 05:44:21;;;;;;;46.77;31.97;;;;;;;13.39;100.00;64118.00;4975017;28;20057;-96
2023/05/08 05:46:46;;;;;;;49.80;33.30;;;;;;;13.45;100.00;64123.19;4979418;28;20035;-96
2023/05/08 05:49:12;;;;;;;49.30;33.40;;;;;;;13.50;100.00;64128.59;4974884;28;20474;-96
2023/05/08 05:51:37;;;;;;;45.60;32.27;;;;;;;13.55;100.00;64133.53;4959020;28;20031;-96
2023/05/08 05:54:03;;;;;;;48.27;33.10;;;;;;;13.60;100.00;64138.69;4985872;28;20030;-96
2023/05/08 05:56:29;;;;;;;49.20;33.97;;;;;;;13.65;100.00;64143.28;4988417;28;20034;-96
2023/05/08 05:58:56;;;;;;;50.67;34.13;;;;;;;13.70;100.00;64148.28;4966211;28;20030;-96
2023/05/08 06:01:23;;;;;;;48.33;34.10;;;;;;;13.75;100.00;64154.03;4964765;28;20037;-96
2023/05/08 06:03:50;;;;;;;52.17;35.63;;;;;;;13.81;100.00;64160.09;4964462;28;20038;-96
2023/05/08 06:09:03;;;;;;;54.78;35.85;;;;;;;13.94;100.00;64173.22;4959899;28;20122;-96
2023/05/08 06:11:28;;;;;;;58.30;37.42;;;;;;;14.01;100.00;64180.44;4960810;28;20470;-96
2023/05/08 06:13:54;;;;;;;50.87;36.53;;;;;;;14.07;100.00;64187.28;4958159;28;20019;-96
2023/05/08 06:16:21;;;;;;;51.90;35.35;;;;;;;14.14;100.00;64193.97;4974637;28;20034;-96
2023/05/08 06:18:47;;;;;;;56.80;38.92;;;;;;;14.22;100.00;64201.97;4977561;28;20023;-96
2023/05/08 06:21:12;;;;;;;52.57;35.53;;;;;;;14.29;100.00;64209.47;4969766;28;20672;-96
2023/05/08 06:23:44;;;;;;;51.07;35.40;;;;;;;14.37;100.00;64217.41;4973354;28;20038;-96
2023/05/08 06:26:09;;;;;;;54.65;37.42;;;;;;;14.44;100.00;64224.66;4954891;28;20490;-95
2023/05/08 06:28:43;;;;;;;49.15;34.92;;;;;;;14.50;100.00;64231.34;4973272;28;20027;-96
2023/05/08 06:31:08;;;;;;;51.53;36.30;;;;;;;14.58;100.00;64238.75;4954848;28;20080;-96
2023/05/08 06:33:43;;;;;;;52.80;36.75;;;;;;;14.65;100.00;64245.94;4958731;28;20030;-96
2023/05/08 06:36:09;;;;;;;49.83;35.97;;;;;;;14.72;100.00;64253.03;4975960;28;20027;-96
2023/05/08 06:38:40;;;;;;;51.70;35.30;;;;;;;14.78;100.00;64260.38;4976199;28;20026;-96
2023/05/08 06:41:15;;;;;;;50.45;36.85;;;;;;;14.84;100.00;64266.47;4976414;28;20023;-96
2023/05/08 06:43:43;;;;;;;53.05;37.78;;;;;;;14.90;100.00;64272.75;4976726;28;20031;-96
2023/05/08 06:46:08;;;;;;;50.78;35.53;;;;;;;14.96;100.00;64278.91;4975894;28;20060;-96
2023/05/08 06:48:34;;;;;;;53.03;36.40;;;;;;;15.01;100.00;64284.09;4976142;28;20487;-96
2023/05/08 06:50:59;;;;;;;50.87;35.30;;;;;;;15.06;100.00;64289.16;4958148;28;20087;-95
2023/05/08 06:53:24;;;;;;;51.37;35.47;;;;;;;15.11;100.00;64294.03;4958873;28;20031;-96
2023/05/08 06:55:50;;;;;;;54.25;38.40;;;;;;;15.15;100.00;64298.53;4975432;28;20102;-96
2023/05/08 06:58:16;;;;;;;54.33;38.20;;;;;;;15.19;100.00;64302.94;4958454;28;20022;-95
2023/05/08 07:00:44;;;;;;;52.20;35.63;;;;;;;15.23;100.00;64306.88;4976326;28;20363;-95
2023/05/08 07:03:13;;;;;;;49.60;35.22;;;;;;;15.27;100.00;64310.72;4959498;28;20022;-96
2023/05/08 07:05:38;;;;;;;50.67;35.45;;;;;;;15.30;100.00;64313.88;4977159;28;20046;-96
2023/05/08 07:08:04;;;;;;;48.63;34.20;;;;;;;15.34;100.00;64317.81;4959991;28;20474;-96
2023/05/08 07:10:29;;;;;;;46.38;32.38;;;;;;;15.37;100.00;64321.91;4979074;28;20023;-96
2023/05/08 07:12:55;;;;;;;50.53;35.13;;;;;;;15.41;100.00;64326.06;4979272;28;20033;-95
2023/05/08 07:15:48;;;;;;;42.67;32.23;;;;;;;15.44;100.00;64329.66;4980893;28;20031;-96
2023/05/08 07:18:13;;;;;;;46.63;33.10;;;;;;;15.46;100.00;64332.16;4990129;28;20006;-96
2023/05/08 07:20:39;;;;;;;43.27;32.90;;;;;;;15.49;100.00;64335.00;4998747;28;20090;-96
2023/05/08 07:23:08;;;;;;;41.70;31.77;;;;;;;15.51;100.00;64336.84;4978012;28;20305;-96
2023/05/08 07:25:34;;;;;;;44.08;31.20;;;;;;;15.53;100.00;64339.19;4959825;28;20114;-96
2023/05/08 07:27:59;;;;;;;43.17;31.47;;;;;;;15.55;100.00;64341.09;4976013;28;20654;-96
2023/05/08 07:30:25;;;;;;;47.13;33.33;;;;;;;15.57;100.00;64343.44;4958489;28;20030;-96
2023/05/08 07:32:50;;;;;;;46.10;33.22;;;;;;;15.58;100.00;64345.34;4974760;28;20027;-96
2023/05/08 07:35:24;;;;;;;47.67;33.67;;;;;;;15.60;100.00;64347.53;4975622;28;20026;-96
2023/05/08 07:37:50;;;;;;;49.10;33.20;;;;;;;15.64;100.00;64350.69;4975226;28;20042;-96
2023/05/08 07:40:15;;;;;;;45.07;31.80;;;;;;;15.67;100.00;64354.38;4958393;28;20110;-96
2023/05/08 07:42:41;;;;;;;46.87;31.97;;;;;;;15.71;100.00;64358.72;4958032;28;20027;-96
2023/05/08 07:45:10;;;;;;;45.40;31.88;;;;;;;15.76;100.00;64363.31;4985893;28;20031;-96
2023/05/08 07:47:35;;;;;;;45.35;31.25;;;;;;;15.81;100.00;64368.56;4970023;28;20023;-96
2023/05/08 07:50:01;;;;;;;41.28;31.15;;;;;;;15.87;100.00;64375.09;4986283;28;20033;-96
2023/05/08 07:52:26;;;;;;;46.23;31.30;;;;;;;15.94;100.00;64381.94;4976323;28;20053;-96
2023/05/08 07:54:52;;;;;;;45.47;30.83;;;;;;;16.02;100.00;64389.88;4975734;28;20069;-96
2023/05/08 07:57:17;;;;;;;43.53;30.37;;;;;;;16.09;100.00;64397.91;4975238;28;20843;-95
2023/05/08 07:59:42;;;;;;;40.85;29.60;;;;;;;16.18;100.00;64407.00;4958395;28;20023;-96
2023/05/08 08:02:08;;;;;;;39.53;30.40;;;;;;;16.28;100.00;64417.59;4977069;28;20035;-95
2023/05/08 08:04:33;;;;;;;43.07;29.80;;;;;;;16.40;100.00;64429.91;4975945;28;20154;-95
2023/05/08 08:06:59;;;;;;;38.07;28.63;;;;;;;16.51;100.00;64441.75;4974659;28;20084;-95
2023/05/08 08:09:26;;;;;;;40.60;29.38;;;;;;;16.62;100.00;64453.47;4979440;28;20030;-96
2023/05/08 08:11:51;;;;;;;42.28;29.98;;;;;;;16.75;100.00;64466.75;4988336;28;20034;-95
2023/05/08 08:14:16;;;;;;;37.17;28.90;;;;;;;16.87;100.00;64480.28;4977398;28;20370;-96
2023/05/08 08:16:42;;;;;;;38.70;28.73;;;;;;;17.01;100.00;64493.84;4957965;28;20038;-96
2023/05/08 08:19:08;;;;;;;35.70;28.53;;;;;;;17.15;100.00;64508.72;4975182;28;20395;-95
2023/05/08 08:21:40;;;;;;;36.63;28.83;;;;;;;17.30;100.00;64523.44;4976163;28;20329;-96
2023/05/08 08:24:06;;;;;;;37.33;28.48;;;;;;;17.45;100.00;64539.06;4983312;23;20049;-96
2023/05/08 08:26:31;;;;;;;39.67;29.10;;;;;;;17.60;100.00;64555.03;4957564;28;20169;-96
2023/05/08 08:29:00;;;;;;;40.20;29.83;;;;;;;17.74;100.00;64569.34;5023945;23;20054;-95
2023/05/08 08:31:49;;;;;;;37.05;26.65;;;;;;;17.89;100.00;64584.56;4958593;28;20427;-96
2023/05/08 08:34:21;;;;;;;34.08;26.95;;;;;;;18.04;100.00;64600.13;4977232;28;20023;-95
2023/05/08 08:36:48;;;;;;;33.97;27.30;;;;;;;18.18;100.00;64615.09;4976764;28;20504;-95
2023/05/08 08:39:32;;;;;;;32.70;26.43;;;;;;;18.32;100.00;64629.50;4916050;28;20355;-96
2023/05/08 08:42:06;;;;;;;32.35;24.55;;;;;;;18.46;100.00;64644.06;4958941;28;20118;-95
2023/05/08 08:44:32;;;;;;;32.33;25.92;;;;;;;18.60;100.00;64657.69;4977853;28;20478;-96
2023/05/08 08:47:01;;;;;;;36.88;27.13;;;;;;;18.74;100.00;64671.66;4961239;28;20029;-96
2023/05/08 08:49:49;;;;;;;34.80;26.02;;;;;;;18.88;100.00;64685.97;4978516;28;20098;-95
2023/05/08 08:52:39;;;;;;;27.93;22.97;;;;;;;19.01;99.19;64699.38;4985052;28;20170;-95
2023/05/08 08:55:15;;;;;;;29.90;24.73;;;;;;;19.15;100.00;64714.53;4978408;28;20313;-96
2023/05/08 08:57:59;;;;;;;31.80;25.17;;;;;;;19.32;100.00;64731.59;4964663;28;20038;-96
2023/05/08 09:00:40;;;;;;;31.85;23.98;;;;;;;19.45;94.06;64745.41;4974964;28;20473;-96
2023/05/08 09:03:15;;;;;;;29.35;24.77;;;;;;;19.58;100.00;64758.81;4962818;28;20038;-95
2023/05/08 09:08:49;;;;;;;30.88;24.80;;;;;;;19.81;95.71;64783.09;5241306;23;20121;-94
2023/05/08 09:11:30;;;;;;;29.80;24.10;;;;;;;19.93;99.99;64795.44;4975620;28;20077;-95
2023/05/08 09:14:08;;;;;;;30.77;24.37;;;;;;;20.04;93.69;64807.47;4976034;28;20345;-95
2023/05/08 09:16:36;;;;;;;31.05;24.55;;;;;;;20.13;92.13;64817.78;4974417;28;20035;-96
2023/05/08 09:19:26;;;;;;;29.70;23.75;;;;;;;20.23;94.83;64827.53;4974468;28;20043;-95
2023/05/08 09:21:59;;;;;;;30.90;24.35;;;;;;;20.30;94.23;64835.66;4960830;28;20031;-96
2023/05/08 09:24:26;;;;;;;29.83;23.00;;;;;;;20.37;92.18;64842.34;4958971;28;20027;-95
2023/05/08 09:26:55;;;;;;;26.95;22.50;;;;;;;20.41;92.34;64846.53;4979401;23;20134;-95
2023/05/08 09:29:21;;;;;;;28.95;23.77;;;;;;;20.44;93.99;64849.63;4982828;28;20027;-95
2023/05/08 09:31:52;;;;;;;25.60;22.10;;;;;;;20.48;96.16;64854.41;4963867;28;20031;-96
2023/05/08 09:34:24;;;;;;;27.48;22.33;;;;;;;20.55;92.29;64861.13;4987027;28;20038;-95
2023/05/08 09:36:49;;;;;;;27.33;22.95;;;;;;;20.62;91.78;64868.47;4984438;23;20043;-94
2023/05/08 09:39:34;;;;;;;27.23;22.20;;;;;;;20.71;94.34;64878.47;4996816;28;20066;-95
2023/05/08 09:42:08;;;;;;;28.00;22.00;;;;;;;20.80;91.37;64887.53;4983500;28;20037;-94
2023/05/08 09:44:50;;;;;;;31.02;22.20;;;;;;;20.89;90.96;64897.00;4980383;28;20022;-95
2023/05/08 09:47:23;;;;;;;28.90;22.95;;;;;;;20.98;88.86;64905.97;4993940;28;20025;-95
2023/05/08 09:50:10;;;;;;;27.23;22.33;;;;;;;21.03;89.44;64911.34;4996164;28;20011;-95
2023/05/08 09:52:36;;;;;;;27.75;21.70;;;;;;;;;;4972881;28;20014;-95
2023/05/08 09:55:19;;;;;;;30.00;22.57;;;;;;;;;;4996999;28;20053;-96
2023/05/08 09:57:58;;;;;;;27.58;23.13;;;;;;;21.05;96.52;64913.88;4965230;28;20019;-96
2023/05/08 10:00:25;;;;;;;27.88;23.63;;;;;;;21.03;94.08;64912.34;4960045;28;20486;-95
2023/05/08 10:02:59;;;;;;;27.23;23.38;;;;;;;21.01;95.88;64910.25;4978018;28;20030;-96
2023/05/08 10:05:37;;;;;;;31.63;24.65;;;;;;;20.99;98.08;64908.09;4960589;28;20038;-96
2023/05/08 10:11:50;;;;;;;34.37;26.03;;;;;;;;;;4988368;28;20046;-96
2023/05/08 10:14:19;;;;;;;31.83;25.13;;;;;;;;;;4968953;28;20353;-96
2023/05/08 10:21:02;;;;;;;33.05;26.92;;;;;;;20.91;98.09;64899.28;4984479;28;20081;-95
2023/05/08 10:23:28;;;;;;;35.83;27.05;;;;;;;20.88;96.77;64896.94;4985705;28;20030;-96
2023/05/08 10:29:12;;;;;;;42.90;29.75;;;;;;;20.82;99.68;64890.81;4985541;28;20051;-96
2023/05/08 10:32:01;;;;;;;46.03;30.48;;;;;;;20.79;100.00;64887.44;4968948;28;20474;-96
2023/05/08 10:34:31;;;;;;;44.47;30.73;;;;;;;20.78;98.32;64886.22;4986647;28;20077;-96
2023/05/08 10:36:57;;;;;;;40.42;30.20;;;;;;;20.77;98.49;64885.88;4987962;28;20027;-96
2023/05/08 10:39:24;;;;;;;43.83;31.60;;;;;;;20.77;98.27;64885.53;4988226;28;20041;-95
2023/05/08 10:41:50;;;;;;;45.85;30.50;;;;;;;20.77;97.39;64886.13;4978323;28;20023;-93
2023/05/08 10:44:19;;;;;;;43.23;32.10;;;;;;;20.78;96.82;64887.97;5001886;28;20098;-94
2023/05/08 10:46:51;;;;;;;45.17;31.63;;;;;;;;;;4985995;28;20022;-95
2023/05/08 10:49:44;;;;;;;47.17;32.47;;;;;;;20.86;97.08;64895.16;5002325;28;20462;-95
2023/05/08 10:52:40;;;;;;;47.00;31.88;;;;;;;20.92;95.09;64901.56;5002306;28;20045;-95
2023/05/08 10:55:20;;;;;;;46.53;31.67;;;;;;;21.00;92.63;64909.84;5002691;28;20019;-94
2023/05/08 10:58:02;;;;;;;42.67;29.03;;;;;;;21.10;92.60;64919.97;5002317;28;20098;-95
2023/05/08 11:00:32;;;;;;;47.00;31.10;;;;;;;21.18;85.93;64928.63;5000412;28;20262;-95
2023/05/08 11:03:07;;;;;;;44.38;30.02;;;;;;;21.28;89.47;64937.56;5000083;28;20027;-96
2023/05/08 11:05:45;;;;;;;40.30;29.38;;;;;;;21.36;89.82;64946.22;4989103;28;20042;-95
2023/05/08 11:08:38;;;;;;;43.42;29.33;;;;;;;21.46;87.11;64957.09;4976226;28;20023;-95
2023/05/08 11:11:22;;;;;;;42.20;30.77;;;;;;;21.58;86.43;64968.84;4983571;28;20086;-95
2023/05/08 11:14:01;;;;;;;43.42;30.75;;;;;;;21.69;82.07;64980.28;4965865;28;20037;-95
2023/05/08 11:17:00;;;;;;;42.53;30.47;;;;;;;21.81;82.70;64992.94;4967946;28;20580;-96
2023/05/08 11:20:02;;;;;;;40.50;29.27;;;;;;;21.92;76.88;65003.84;4981435;28;20054;-96
2023/05/08 11:22:35;;;;;;;42.00;29.27;;;;;;;22.03;78.04;65015.06;4963773;28;20074;-94
2023/05/08 11:25:15;;;;;;;43.72;30.25;;;;;;;22.14;76.52;65026.41;4963562;28;20038;-95
2023/05/08 11:27:49;;;;;;;40.83;28.50;;;;;;;22.28;79.09;65040.31;4981128;28;20105;-95
2023/05/08 11:30:21;;;;;;;41.47;28.42;;;;;;;22.45;78.49;65056.78;4979412;28;20046;-95
2023/05/08 11:33:05;;;;;;;39.90;27.95;;;;;;;22.62;77.13;65074.91;4961394;28;20129;-95
2023/05/08 11:35:48;;;;;;;43.47;30.93;;;;;;;22.79;73.77;65091.44;4980210;28;20031;-96
2023/05/08 11:38:18;;;;;;;44.28;31.92;;;;;;;22.93;72.62;65105.78;4960325;28;20115;-95
2023/05/08 11:40:48;;;;;;;46.95;33.67;;;;;;;23.04;72.54;65117.19;4977846;28;20113;-96
2023/05/08 11:43:35;;;;;;;49.15;35.25;;;;;;;23.13;77.26;65126.19;4977193;28;20058;-94
2023/05/08 11:46:07;;;;;;;51.60;34.00;;;;;;;23.21;73.76;65133.81;4959645;28;20434;-95
2023/05/08 11:48:43;;;;;;;50.17;34.67;;;;;;;23.28;73.16;65141.63;4962491;28;20027;-95
2023/05/08 11:51:08;;;;;;;47.47;32.27;;;;;;;23.37;71.44;65150.09;4978610;28;20101;-96